createdAt,value
2023-05-15T00:00:53.954Z,100471.83
2023-05-15T00:03:21.631Z,100470.70
2023-05-15T00:05:49.358Z,100473.91
2023-05-15T00:08:16.440Z,100477.70
2023-05-15T00:10:53.953Z,100474.20
2023-05-15T00:13:27.796Z,100472.34
2023-05-15T00:15:55.382Z,100469.85
2023-05-15T00:18:22.582Z,100470.38
2023-05-15T00:20:49.621Z,100467.40
2023-05-15T00:23:16.675Z,100465.58
2023-05-15T00:25:43.911Z,100466.98
2023-05-15T00:28:10.973Z,100470.59
2023-05-15T00:30:38.332Z,100467.30
2023-05-15T00:33:07.863Z,100473.92
2023-05-15T00:35:34.955Z,100476.23
2023-05-15T00:38:02.431Z,100475.91
2023-05-15T00:40:32.406Z,100477.45
2023-05-15T00:43:00.957Z,100471.27
2023-05-15T00:45:30.622Z,100473.20
2023-05-15T00:47:59.534Z,100470.98
2023-05-15T00:50:27.214Z,100472.98
2023-05-15T00:52:56.188Z,100469.52
2023-05-15T00:55:26.937Z,100473.67
2023-05-15T00:57:55.439Z,100470.02
2023-05-15T01:00:23.714Z,100466.05
2023-05-15T01:02:51.311Z,100464.61
2023-05-15T01:05:18.659Z,100465.51
2023-05-15T01:07:57.657Z,100465.05
2023-05-15T01:10:25.268Z,100464.75
2023-05-15T01:12:55.766Z,100463.97
2023-05-15T01:15:24.633Z,100463.61
2023-05-15T01:17:52.596Z,100461.87
2023-05-15T01:20:21.322Z,100463.44
2023-05-15T01:23:12.914Z,100465.18
2023-05-15T01:25:57.721Z,100465.94
2023-05-15T01:28:46.724Z,100464.88
2023-05-15T01:31:22.549Z,100469.59
2023-05-15T01:33:56.431Z,100470.48
2023-05-15T01:36:32.868Z,100469.83
2023-05-15T01:39:03.769Z,100466.77
2023-05-15T01:41:55.044Z,100462.23
2023-05-15T01:44:30.847Z,100464.82
2023-05-15T01:47:10.804Z,100462.53
2023-05-15T01:49:39.802Z,100459.59
2023-05-15T01:52:12.952Z,100459.77
2023-05-15T01:54:42.334Z,100455.84
2023-05-15T01:57:11.830Z,100456.25
2023-05-15T01:59:40.955Z,100454.77
2023-05-15T02:02:10.961Z,100456.19
2023-05-15T02:04:40.337Z,100458.40
2023-05-15T02:07:08.150Z,100458.96
2023-05-15T02:09:36.772Z,100457.91
2023-05-15T02:12:05.535Z,100458.27
2023-05-15T02:14:32.673Z,100460.58
2023-05-15T02:17:00.155Z,100457.12
2023-05-15T02:19:27.516Z,100460.10
2023-05-15T02:21:54.979Z,100462.69
2023-05-15T02:24:22.235Z,100466.79
2023-05-15T02:27:17.720Z,100462.35
2023-05-15T02:30:10.805Z,100459.95
2023-05-15T02:33:05.343Z,100462.77
2023-05-15T02:35:48.715Z,100462.05
2023-05-15T02:38:41.256Z,100462.14
2023-05-15T02:41:10.528Z,100459.76
2023-05-15T02:43:39.645Z,100467.42
2023-05-15T02:46:08.508Z,100469.95
2023-05-15T02:48:39.881Z,100465.41
2023-05-15T02:51:07.531Z,100461.70
2023-05-15T02:53:41.161Z,100459.34
2023-05-15T02:56:09.191Z,100461.72
2023-05-15T02:58:37.359Z,100458.75
2023-05-15T03:01:04.851Z,100459.77
2023-05-15T03:03:32.329Z,100458.87
2023-05-15T03:06:01.270Z,100454.01
2023-05-15T03:08:28.946Z,100458.45
2023-05-15T03:10:56.532Z,100454.67
2023-05-15T03:13:23.616Z,100451.00
2023-05-15T03:15:50.774Z,100451.64
2023-05-15T03:18:19.185Z,100450.49
2023-05-15T03:20:48.876Z,100451.61
2023-05-15T03:23:16.351Z,100448.92
2023-05-15T03:25:43.707Z,100448.77
2023-05-15T03:28:11.824Z,100451.29
2023-05-15T03:30:39.240Z,100454.04
2023-05-15T03:33:06.854Z,100454.25
2023-05-15T03:35:34.090Z,100450.61
2023-05-15T03:38:02.928Z,100457.73
2023-05-15T03:40:30.181Z,100465.30
2023-05-15T03:42:58.561Z,100469.87
2023-05-15T03:45:26.292Z,100471.39
2023-05-15T03:47:54.226Z,100467.19
2023-05-15T03:50:21.360Z,100469.27
2023-05-15T03:52:48.587Z,100468.44
2023-05-15T03:55:16.228Z,100466.73
2023-05-15T03:57:43.844Z,100462.86
2023-05-15T04:00:11.430Z,100458.83
2023-05-15T04:02:41.761Z,100456.52
2023-05-15T04:05:09.953Z,100463.44
2023-05-15T04:07:37.969Z,100463.88
2023-05-15T04:10:06.277Z,100458.88
2023-05-15T04:12:35.018Z,100458.90
2023-05-15T04:15:24.020Z,100458.13
2023-05-15T04:17:53.728Z,100457.29
2023-05-15T04:20:23.280Z,100455.46
2023-05-15T04:22:51.072Z,100455.90
2023-05-15T04:25:18.735Z,100449.23
2023-05-15T04:27:46.986Z,100447.48
2023-05-15T04:30:14.512Z,100446.06
2023-05-15T04:32:41.730Z,100445.17
2023-05-15T04:35:10.819Z,100443.58
2023-05-15T04:37:42.446Z,100446.45
2023-05-15T04:40:10.755Z,100447.73
2023-05-15T04:42:39.671Z,100450.86
2023-05-15T04:45:09.524Z,100450.71
2023-05-15T04:47:37.248Z,100450.45
2023-05-15T04:50:05.157Z,100451.17
2023-05-15T04:52:33.465Z,100451.02
2023-05-15T04:55:01.069Z,100453.77
2023-05-15T04:57:28.258Z,100452.77
2023-05-15T04:59:55.456Z,100452.68
2023-05-15T05:02:23.651Z,100452.04
2023-05-15T05:04:51.339Z,100453.37
2023-05-15T05:07:18.966Z,100451.84
2023-05-15T05:09:46.265Z,100451.81
2023-05-15T05:12:14.708Z,100454.73
2023-05-15T05:14:42.513Z,100456.19
2023-05-15T05:17:09.996Z,100453.87
2023-05-15T05:19:37.109Z,100451.86
2023-05-15T05:22:06.034Z,100451.63
2023-05-15T05:24:35.980Z,100449.21
2023-05-15T05:27:04.310Z,100453.14
2023-05-15T05:29:31.650Z,100454.02
2023-05-15T05:31:59.644Z,100451.09
2023-05-15T05:34:27.120Z,100455.30
2023-05-15T05:36:54.483Z,100457.60
2023-05-15T05:39:21.714Z,100457.45
2023-05-15T05:41:48.758Z,100452.74
2023-05-15T05:44:15.861Z,100450.41
2023-05-15T05:46:43.176Z,100450.69
2023-05-15T05:49:10.221Z,100447.63
2023-05-15T05:51:37.688Z,100449.27
2023-05-15T05:54:05.542Z,100444.96
2023-05-15T05:56:32.608Z,100444.48
2023-05-15T05:59:02.224Z,100441.45
2023-05-15T06:01:30.278Z,100446.98
2023-05-15T06:03:57.917Z,100445.98
2023-05-15T06:06:25.179Z,100446.58
2023-05-15T06:08:54.863Z,100443.62
2023-05-15T06:11:25.141Z,100445.73
2023-05-15T06:13:52.894Z,100447.98
2023-05-15T06:16:20.617Z,100446.60
2023-05-15T06:18:47.847Z,100444.42
2023-05-15T06:21:15.470Z,100447.00
2023-05-15T06:23:42.852Z,100443.85
2023-05-15T06:26:10.313Z,100443.48
2023-05-15T06:28:37.692Z,100438.94
2023-05-15T06:31:04.994Z,100437.71
2023-05-15T06:33:32.291Z,100435.55
2023-05-15T06:35:59.381Z,100436.22
2023-05-15T06:38:26.998Z,100433.36
2023-05-15T06:40:54.137Z,100437.36
2023-05-15T06:43:21.335Z,100440.35
2023-05-15T06:45:49.926Z,100442.89
2023-05-15T06:48:17.056Z,100441.46
2023-05-15T06:50:44.480Z,100442.51
2023-05-15T06:53:13.069Z,100441.95
2023-05-15T06:55:41.628Z,100442.40
2023-05-15T06:58:08.752Z,100440.08
2023-05-15T07:00:36.178Z,100439.96
2023-05-15T07:03:03.440Z,100440.37
2023-05-15T07:05:30.989Z,100440.02
2023-05-15T07:07:58.149Z,100438.21
2023-05-15T07:10:25.541Z,100434.30
2023-05-15T07:12:53.289Z,100434.19
2023-05-15T07:15:20.576Z,100435.33
2023-05-15T07:17:47.847Z,100433.80
2023-05-15T07:20:15.060Z,100430.39
2023-05-15T07:22:54.937Z,100434.59
2023-05-15T07:25:24.134Z,100432.21
2023-05-15T07:27:52.049Z,100433.95
2023-05-15T07:30:19.473Z,100429.67
2023-05-15T07:32:47.070Z,100429.32
2023-05-15T07:35:14.582Z,100424.09
2023-05-15T07:37:42.496Z,100426.48
2023-05-15T07:40:10.223Z,100421.55
2023-05-15T07:42:37.266Z,100417.02
2023-05-15T07:45:04.883Z,100417.27
2023-05-15T07:47:32.476Z,100414.77
2023-05-15T07:49:59.526Z,100414.73
2023-05-15T07:52:26.697Z,100410.27
2023-05-15T07:54:53.904Z,100406.54
2023-05-15T07:57:20.944Z,100407.14
2023-05-15T07:59:48.336Z,100405.42
2023-05-15T08:02:15.536Z,100402.34
2023-05-15T08:04:43.011Z,100400.80
2023-05-15T08:07:10.780Z,100402.85
2023-05-15T08:09:37.954Z,100404.20
2023-05-15T08:12:21.494Z,100404.91
2023-05-15T08:14:53.480Z,100405.21
2023-05-15T08:17:21.842Z,100403.67
2023-05-15T08:19:49.817Z,100401.26
2023-05-15T08:22:17.699Z,100402.98
2023-05-15T08:24:45.470Z,100399.79
2023-05-15T08:27:12.750Z,100399.66
2023-05-15T08:29:40.450Z,100398.77
2023-05-15T08:32:08.871Z,100396.94
2023-05-15T08:34:36.227Z,100393.69
2023-05-15T08:37:05.405Z,100388.02
2023-05-15T08:39:32.834Z,100383.23
2023-05-15T08:42:08.450Z,100387.48
2023-05-15T08:44:36.950Z,100388.81
2023-05-15T08:47:06.377Z,100387.06
2023-05-15T08:50:12.424Z,100383.14
2023-05-15T08:52:45.819Z,100379.40
2023-05-15T08:55:15.229Z,100377.93
2023-05-15T08:57:44.189Z,100376.95
2023-05-15T09:00:15.202Z,100374.48
2023-05-15T09:02:43.287Z,100373.45
2023-05-15T09:05:11.640Z,100370.64
2023-05-15T09:07:45.122Z,100368.66
2023-05-15T09:10:13.918Z,100370.58
2023-05-15T09:12:44.679Z,100365.02
2023-05-15T09:15:25.558Z,100368.09
2023-05-15T09:17:54.646Z,100365.91
2023-05-15T09:20:31.198Z,100364.12
2023-05-15T09:23:00.386Z,100361.48
2023-05-15T09:25:40.918Z,100357.52
2023-05-15T09:28:11.361Z,100355.31
2023-05-15T09:30:43.090Z,100355.05
2023-05-15T09:33:10.387Z,100352.79
2023-05-15T09:35:39.535Z,100350.61
2023-05-15T09:38:12.738Z,100351.92
2023-05-15T09:40:43.512Z,100349.62
2023-05-15T09:43:12.361Z,100351.77
2023-05-15T09:45:39.692Z,100346.76
2023-05-15T09:48:08.036Z,100348.35
2023-05-15T09:50:38.025Z,100342.56
2023-05-15T09:53:06.587Z,100338.27
2023-05-15T09:55:37.471Z,100333.27
2023-05-15T09:58:16.392Z,100333.30
2023-05-15T10:00:48.694Z,100330.11
2023-05-15T10:03:20.344Z,100336.38
2023-05-15T10:05:47.942Z,100336.27
2023-05-15T10:08:16.575Z,100339.42
2023-05-15T10:10:45.523Z,100338.36
2023-05-15T10:13:12.818Z,100339.39
2023-05-15T10:15:40.882Z,100335.09
2023-05-15T10:18:09.231Z,100333.24
2023-05-15T10:20:38.080Z,100331.84
2023-05-15T10:23:06.769Z,100328.73
2023-05-15T10:25:49.752Z,100327.13
2023-05-15T10:28:19.067Z,100324.48
2023-05-15T10:30:47.155Z,100321.65
2023-05-15T10:33:15.631Z,100317.70
2023-05-15T10:35:47.265Z,100313.65
2023-05-15T10:38:15.215Z,100311.90
2023-05-15T10:40:43.540Z,100312.05
2023-05-15T10:43:12.416Z,100318.20
2023-05-15T10:45:42.364Z,100315.95
2023-05-15T10:48:12.623Z,100317.73
2023-05-15T10:50:39.961Z,100318.34
2023-05-15T10:53:09.163Z,100319.08
2023-05-15T10:55:37.523Z,100322.33
2023-05-15T10:58:10.359Z,100324.37
2023-05-15T11:00:45.781Z,100328.67
2023-05-15T11:03:17.548Z,100329.15
2023-05-15T11:06:07.114Z,100328.44
2023-05-15T11:08:36.046Z,100328.77
2023-05-15T11:11:03.045Z,100327.21
2023-05-15T11:14:10.594Z,100326.45
2023-05-15T11:16:53.353Z,100331.13
2023-05-15T11:19:31.665Z,100332.77
2023-05-15T11:22:21.925Z,100328.80
2023-05-15T11:24:58.313Z,100327.83
2023-05-15T11:27:28.898Z,100321.67
2023-05-15T11:30:06.182Z,100318.67
2023-05-15T11:33:04.466Z,100317.99
2023-05-15T11:35:42.432Z,100316.52
2023-05-15T11:38:24.835Z,100317.79
2023-05-15T11:40:56.254Z,100314.40
2023-05-15T11:43:27.582Z,100315.33
2023-05-15T11:45:58.267Z,100312.47
2023-05-15T11:48:31.635Z,100310.83
2023-05-15T11:50:59.021Z,100308.77
2023-05-15T11:53:26.812Z,100309.55
2023-05-15T11:55:54.704Z,100310.35
2023-05-15T11:58:23.985Z,100312.23
2023-05-15T12:00:52.993Z,100307.77
2023-05-15T12:03:32.910Z,100309.81
2023-05-15T12:06:02.308Z,100305.60
2023-05-15T12:08:39.449Z,100300.75
2023-05-15T12:11:06.918Z,100299.30
2023-05-15T12:13:35.178Z,100299.91
2023-05-15T12:16:05.659Z,100292.73
2023-05-15T12:18:33.818Z,100294.05
2023-05-15T12:21:01.024Z,100291.73
2023-05-15T12:23:28.845Z,100290.65
2023-05-15T12:26:02.026Z,100292.69
2023-05-15T12:28:30.829Z,100294.10
2023-05-15T12:30:58.663Z,100294.33
2023-05-15T12:33:25.938Z,100295.02
2023-05-15T12:36:01.196Z,100291.20
2023-05-15T12:38:29.159Z,100289.60
2023-05-15T12:40:57.405Z,100288.42
2023-05-15T12:43:25.991Z,100290.23
2023-05-15T12:45:55.012Z,100292.96
2023-05-15T12:48:22.818Z,100292.46
2023-05-15T12:50:50.413Z,100290.47
2023-05-15T12:53:17.863Z,100284.03
2023-05-15T12:55:47.135Z,100282.16
2023-05-15T12:58:18.889Z,100280.82
2023-05-15T13:00:48.087Z,100285.44
2023-05-15T13:03:15.539Z,100291.47
2023-05-15T13:05:45.700Z,100295.17
2023-05-15T13:08:17.998Z,100298.80
2023-05-15T13:10:46.777Z,100297.13
2023-05-15T13:13:14.526Z,100294.38
2023-05-15T13:15:45.730Z,100291.24
2023-05-15T13:18:18.157Z,100294.78
2023-05-15T13:20:49.637Z,100300.88
2023-05-15T13:23:19.357Z,100300.48
2023-05-15T13:25:47.746Z,100300.36
2023-05-15T13:28:14.887Z,100300.33
2023-05-15T13:30:42.828Z,100298.39
2023-05-15T13:33:11.972Z,100303.05
2023-05-15T13:35:41.388Z,100297.23
2023-05-15T13:38:11.383Z,100298.39
2023-05-15T13:40:39.579Z,100300.97
2023-05-15T13:43:06.950Z,100298.89
2023-05-15T13:45:34.512Z,100306.50
2023-05-15T13:48:01.863Z,100306.95
2023-05-15T13:50:28.999Z,100308.26
2023-05-15T13:52:56.255Z,100307.42
2023-05-15T13:55:23.577Z,100304.47
2023-05-15T13:57:51.798Z,100305.60
2023-05-15T14:00:19.947Z,100307.81
2023-05-15T14:02:47.250Z,100309.57
2023-05-15T14:05:15.629Z,100310.12
2023-05-15T14:07:43.309Z,100311.32
2023-05-15T14:10:10.953Z,100319.88
2023-05-15T14:12:38.439Z,100323.95
2023-05-15T14:15:06.385Z,100323.48
2023-05-15T14:17:33.471Z,100327.98
2023-05-15T14:20:00.650Z,100326.52
2023-05-15T14:22:27.812Z,100328.35
2023-05-15T14:24:54.894Z,100328.98
2023-05-15T14:27:21.950Z,100324.41
2023-05-15T14:29:49.564Z,100326.31
2023-05-15T14:32:17.283Z,100323.40
2023-05-15T14:34:45.080Z,100329.04
2023-05-15T14:37:12.186Z,100326.21
2023-05-15T14:39:39.473Z,100325.29
2023-05-15T14:42:07.234Z,100322.19
2023-05-15T14:44:34.918Z,100323.29
2023-05-15T14:47:16.892Z,100324.64
2023-05-15T14:49:44.096Z,100321.98
2023-05-15T14:52:12.340Z,100323.98
2023-05-15T14:54:40.308Z,100324.73
2023-05-15T14:57:08.145Z,100326.85
2023-05-15T14:59:35.269Z,100327.91
2023-05-15T15:02:02.453Z,100327.02
2023-05-15T15:04:34.420Z,100330.50
2023-05-15T15:07:05.135Z,100331.48
2023-05-15T15:09:32.225Z,100334.39
2023-05-15T15:11:59.301Z,100335.11
2023-05-15T15:14:26.322Z,100330.49
2023-05-15T15:16:53.365Z,100329.29
2023-05-15T15:19:20.722Z,100327.26
2023-05-15T15:21:48.547Z,100324.02
2023-05-15T15:24:16.905Z,100324.21
2023-05-15T15:26:44.197Z,100323.67
2023-05-15T15:29:11.304Z,100321.56
2023-05-15T15:31:38.508Z,100321.30
2023-05-15T15:34:05.975Z,100323.01
2023-05-15T15:36:33.098Z,100324.23
2023-05-15T15:39:00.157Z,100325.83
2023-05-15T15:41:30.422Z,100328.19
2023-05-15T15:43:57.566Z,100328.63
2023-05-15T15:46:24.666Z,100325.22
2023-05-15T15:48:51.910Z,100325.48
2023-05-15T15:51:18.948Z,100324.96
2023-05-15T15:53:46.309Z,100326.59
2023-05-15T15:56:13.345Z,100326.74
2023-05-15T15:58:40.488Z,100325.48
2023-05-15T16:01:07.652Z,100324.35
2023-05-15T16:03:34.859Z,100322.05
2023-05-15T16:06:02.015Z,100326.73
2023-05-15T16:08:29.169Z,100328.13
2023-05-15T16:10:56.350Z,100332.80
2023-05-15T16:13:23.434Z,100335.45
2023-05-15T16:15:50.892Z,100333.86
2023-05-15T16:18:17.970Z,100335.11
2023-05-15T16:20:45.128Z,100336.30
2023-05-15T16:23:15.606Z,100336.05
2023-05-15T16:25:44.421Z,100338.66
2023-05-15T16:28:12.253Z,100339.60
2023-05-15T16:30:48.966Z,100341.58
2023-05-15T16:33:18.354Z,100343.56
2023-05-15T16:35:46.622Z,100346.67
2023-05-15T16:38:14.060Z,100346.60
2023-05-15T16:40:41.419Z,100350.52
2023-05-15T16:43:08.495Z,100353.38
2023-05-15T16:45:35.598Z,100354.54
2023-05-15T16:48:03.052Z,100354.88
2023-05-15T16:50:32.139Z,100356.08
2023-05-15T16:52:59.267Z,100353.17
2023-05-15T16:55:26.662Z,100349.31
2023-05-15T16:57:53.994Z,100358.53
2023-05-15T17:00:21.781Z,100364.02
2023-05-15T17:02:50.899Z,100363.73
2023-05-15T17:05:18.274Z,100361.73
2023-05-15T17:07:45.477Z,100366.39
2023-05-15T17:10:14.122Z,100368.28
2023-05-15T17:12:41.708Z,100367.78
2023-05-15T17:15:09.161Z,100368.14
2023-05-15T17:17:36.397Z,100367.43
2023-05-15T17:20:04.882Z,100371.50
2023-05-15T17:22:32.649Z,100375.53
2023-05-15T17:25:00.410Z,100374.20
2023-05-15T17:27:27.561Z,100371.59
2023-05-15T17:29:54.785Z,100371.40
2023-05-15T17:32:22.440Z,100374.24
2023-05-15T17:34:51.589Z,100372.28
2023-05-15T17:37:19.016Z,100377.23
2023-05-15T17:39:46.466Z,100377.63
2023-05-15T17:42:14.390Z,100381.73
2023-05-15T17:44:41.621Z,100385.71
2023-05-15T17:47:10.536Z,100386.08
2023-05-15T17:49:39.008Z,100389.17
2023-05-15T17:52:07.843Z,100389.54
2023-05-15T17:54:35.487Z,100385.33
2023-05-15T17:57:02.885Z,100381.84
2023-05-15T17:59:31.356Z,100388.84
2023-05-15T18:01:58.890Z,100390.45
2023-05-15T18:04:26.445Z,100392.45
2023-05-15T18:06:53.747Z,100394.00
2023-05-15T18:09:23.115Z,100397.54
2023-05-15T18:11:51.307Z,100400.52
2023-05-15T18:14:18.760Z,100403.06
2023-05-15T18:16:46.019Z,100398.51
2023-05-15T18:19:13.517Z,100402.85
2023-05-15T18:21:40.874Z,100402.16
2023-05-15T18:24:08.372Z,100403.63
2023-05-15T18:26:35.406Z,100402.98
2023-05-15T18:29:02.882Z,100402.08
2023-05-15T18:31:30.161Z,100407.86
2023-05-15T18:33:57.715Z,100406.40
2023-05-15T18:36:24.782Z,100406.26
2023-05-15T18:38:52.290Z,100400.09
2023-05-15T18:41:19.335Z,100404.17
2023-05-15T18:43:46.517Z,100408.38
2023-05-15T18:46:13.873Z,100410.84
2023-05-15T18:48:40.915Z,100411.07
2023-05-15T18:51:10.239Z,100407.95
2023-05-15T18:53:37.395Z,100407.17
2023-05-15T18:56:04.666Z,100404.57
2023-05-15T18:58:31.823Z,100410.48
2023-05-15T19:00:58.923Z,100411.48
2023-05-15T19:03:26.501Z,100411.22
2023-05-15T19:05:53.798Z,100410.34
2023-05-15T19:08:21.314Z,100418.16
2023-05-15T19:10:49.127Z,100417.20
2023-05-15T19:13:16.153Z,100408.86
2023-05-15T19:15:51.844Z,100403.04
2023-05-15T19:18:19.666Z,100411.29
2023-05-15T19:20:52.041Z,100414.59
2023-05-15T19:23:20.915Z,100413.05
2023-05-15T19:25:48.586Z,100414.77
2023-05-15T19:28:15.729Z,100412.60
2023-05-15T19:30:43.016Z,100411.61
2023-05-15T19:33:10.320Z,100411.03
2023-05-15T19:35:38.015Z,100408.84
2023-05-15T19:38:05.401Z,100406.80
2023-05-15T19:40:32.816Z,100402.77
2023-05-15T19:43:00.106Z,100406.63
2023-05-15T19:45:27.338Z,100410.27
2023-05-15T19:47:54.801Z,100413.95
2023-05-15T19:50:22.282Z,100420.58
2023-05-15T19:52:49.551Z,100420.27
2023-05-15T19:55:16.857Z,100425.35
2023-05-15T19:57:45.218Z,100428.67
2023-05-15T20:00:13.181Z,100427.89
2023-05-15T20:02:43.563Z,100420.45
2023-05-15T20:05:11.121Z,100421.93
2023-05-15T20:07:38.718Z,100420.42
2023-05-15T20:10:07.209Z,100421.82
2023-05-15T20:12:34.248Z,100426.11
2023-05-15T20:15:01.418Z,100427.52
2023-05-15T20:17:28.484Z,100430.09
2023-05-15T20:19:59.314Z,100432.95
2023-05-15T20:22:26.957Z,100434.86
2023-05-15T20:24:54.856Z,100443.64
2023-05-15T20:27:22.112Z,100438.16
2023-05-15T20:29:49.267Z,100435.69
2023-05-15T20:32:16.629Z,100431.85
2023-05-15T20:34:46.339Z,100430.38
2023-05-15T20:37:14.106Z,100431.34
2023-05-15T20:39:41.706Z,100427.60
2023-05-15T20:42:08.827Z,100427.92
2023-05-15T20:44:39.442Z,100428.04
2023-05-15T20:47:07.132Z,100426.35
2023-05-15T20:49:34.266Z,100423.55
2023-05-15T20:52:01.507Z,100423.38
2023-05-15T20:54:28.604Z,100428.70
2023-05-15T20:56:55.850Z,100426.19
2023-05-15T20:59:23.165Z,100426.36
2023-05-15T21:01:50.296Z,100426.97
2023-05-15T21:04:17.772Z,100429.16
2023-05-15T21:06:46.079Z,100428.59
2023-05-15T21:09:15.760Z,100434.69
2023-05-15T21:11:43.253Z,100436.58
2023-05-15T21:14:10.579Z,100435.77
2023-05-15T21:16:37.993Z,100433.97
2023-05-15T21:19:05.283Z,100435.18
2023-05-15T21:21:32.617Z,100434.53
2023-05-15T21:24:01.635Z,100431.39
2023-05-15T21:26:28.790Z,100434.36
2023-05-15T21:28:58.813Z,100433.17
2023-05-15T21:31:27.250Z,100437.39
2023-05-15T21:33:55.171Z,100435.71
2023-05-15T21:36:22.553Z,100436.75
2023-05-15T21:38:49.815Z,100430.14
2023-05-15T21:41:16.971Z,100435.69
2023-05-15T21:43:46.205Z,100439.80
2023-05-15T21:46:13.506Z,100439.10
2023-05-15T21:48:40.590Z,100439.40
2023-05-15T21:51:07.835Z,100446.16
2023-05-15T21:53:35.320Z,100444.98
2023-05-15T21:56:03.519Z,100445.30
2023-05-15T21:58:32.145Z,100444.23
2023-05-15T22:00:59.301Z,100442.90
2023-05-15T22:03:26.972Z,100441.45
2023-05-15T22:05:54.369Z,100435.41
2023-05-15T22:08:21.788Z,100436.55
2023-05-15T22:10:49.654Z,100429.38
2023-05-15T22:13:16.895Z,100430.61
2023-05-15T22:15:44.429Z,100434.06
2023-05-15T22:18:13.041Z,100433.63
2023-05-15T22:20:40.105Z,100437.55
2023-05-15T22:23:07.691Z,100433.30
2023-05-15T22:25:34.785Z,100434.38
2023-05-15T22:28:02.421Z,100434.29
2023-05-15T22:30:29.680Z,100434.48
2023-05-15T22:32:56.896Z,100436.93
2023-05-15T22:35:24.560Z,100439.20
2023-05-15T22:37:52.731Z,100435.73
2023-05-15T22:40:19.898Z,100440.30
2023-05-15T22:42:50.530Z,100436.54
2023-05-15T22:45:18.692Z,100441.38
2023-05-15T22:47:46.547Z,100440.32
2023-05-15T22:50:14.822Z,100436.41
2023-05-15T22:52:42.046Z,100438.47
2023-05-15T22:55:10.546Z,100439.35
2023-05-15T22:57:37.755Z,100441.41
2023-05-15T23:00:07.324Z,100443.39
2023-05-15T23:02:34.714Z,100440.77
2023-05-15T23:05:02.554Z,100440.42
2023-05-15T23:07:29.671Z,100441.91
2023-05-15T23:09:57.496Z,100440.10
2023-05-15T23:12:24.802Z,100435.98
2023-05-15T23:14:52.052Z,100434.16
2023-05-15T23:17:19.503Z,100434.93
2023-05-15T23:19:46.792Z,100432.96
2023-05-15T23:22:13.961Z,100430.98
2023-05-15T23:24:41.328Z,100430.94
2023-05-15T23:27:08.824Z,100428.02
2023-05-15T23:29:36.513Z,100429.23
2023-05-15T23:32:03.771Z,100429.00
2023-05-15T23:34:31.590Z,100432.34
2023-05-15T23:36:58.819Z,100432.16
2023-05-15T23:39:26.011Z,100428.27
2023-05-15T23:41:53.475Z,100428.40
2023-05-15T23:44:20.959Z,100432.44
2023-05-15T23:46:51.138Z,100435.05
2023-05-15T23:49:18.338Z,100432.00
2023-05-15T23:51:46.492Z,100435.17
2023-05-15T23:54:14.019Z,100434.45
2023-05-15T23:56:41.547Z,100433.67
2023-05-15T23:59:08.585Z,100432.57
